Parma — V2OZ9 — position and weather

sailwx.info

Track history (hours):
 
Tides and Currents Weather Stations Pressure Air Temp Water Temp Dewpoint Dewpoint Depression Visibility Wind Speed Wind Dir Waves Ship Positions

Parma

Last reported at 2014-Nov-27 21:28 UTC. Time now 2014-Nov-28 11:01 UTC.
Position N 36°31' E 014°32'.

MMSI: 279073176.

Date/timePositionNaut miles runAvg speedWind from/ knotsBaromVisibWave heightAir tempDewpointWater temp
2014-Nov-27 21:28N 36°31' E 014°32'27 9.0
2014-Nov-27 18:30N 36°38' E 013°60'  
2014-Nov-23 18:04N 35°56' W 005°15'4 7.7
2014-Nov-23 17:34N 35°54' W 005°18'0 0.2
2014-Nov-23 16:31N 35°54' W 005°18'0 0.0
2014-Nov-23 15:31N 35°54' W 005°18'0 0.0
2014-Nov-23 14:31N 35°54' W 005°18'0 0.3
2014-Nov-23 13:33N 35°54' W 005°19'1 1.2
2014-Nov-23 12:33N 35°55' W 005°19'0 0.0
2014-Nov-23 11:33N 35°55' W 005°19'0 0.1
2014-Nov-23 10:33N 35°55' W 005°20'218 8.7
2014-Nov-22 09:33N 37°03' W 009°37'11 9.4
2014-Nov-22 08:24N 37°13' W 009°40'8 9.5
2014-Nov-22 07:33N 37°21' W 009°42'10 9.7
2014-Nov-22 06:33N 37°30' W 009°45'10 9.5
2014-Nov-22 05:31N 37°40' W 009°48'9 9.4
2014-Nov-22 04:33N 37°49' W 009°50'10 9.4
2014-Nov-22 03:31N 37°58' W 009°53'14 9.5
2014-Nov-22 02:05N 38°12' W 009°57'15 9.3
2014-Nov-22 00:30N 38°26' W 010°01'  
Track history (hours):
 
Tides and Currents Weather Stations Pressure Air Temp Water Temp Dewpoint Dewpoint Depression Visibility Wind Speed Wind Dir Waves Ship Positions

Parma

Last reported at 2014-Nov-27 21:28 UTC. Time now 2014-Nov-28 11:01 UTC.
Position N 36°31' E 014°32'.

MMSI: 279073176.

Date/timePositionNaut miles runAvg speedWind from/ knotsBaromVisibWave heightAir tempDewpointWater temp
2014-Nov-27 21:28N 36°31' E 014°32'27 9.0
2014-Nov-27 18:30N 36°38' E 013°60'  
2014-Nov-23 18:04N 35°56' W 005°15'4 7.7
2014-Nov-23 17:34N 35°54' W 005°18'0 0.2
2014-Nov-23 16:31N 35°54' W 005°18'0 0.0
2014-Nov-23 15:31N 35°54' W 005°18'0 0.0
2014-Nov-23 14:31N 35°54' W 005°18'0 0.3
2014-Nov-23 13:33N 35°54' W 005°19'1 1.2
2014-Nov-23 12:33N 35°55' W 005°19'0 0.0
2014-Nov-23 11:33N 35°55' W 005°19'0 0.1
2014-Nov-23 10:33N 35°55' W 005°20'218 8.7
2014-Nov-22 09:33N 37°03' W 009°37'11 9.4
2014-Nov-22 08:24N 37°13' W 009°40'8 9.5
2014-Nov-22 07:33N 37°21' W 009°42'10 9.7
2014-Nov-22 06:33N 37°30' W 009°45'10 9.5
2014-Nov-22 05:31N 37°40' W 009°48'9 9.4
2014-Nov-22 04:33N 37°49' W 009°50'10 9.4
2014-Nov-22 03:31N 37°58' W 009°53'14 9.5
2014-Nov-22 02:05N 38°12' W 009°57'15 9.3
2014-Nov-22 00:30N 38°26' W 010°01'  

Dump ship's entire track history